Time;durP1;ratioP1;P1;durP2;ratioP2;P2;SDS_P1;SDS_P2;PMS_P1;PMS_P2;Temp;Humidity;BMP_temperature;BMP_pressure;BME280_temperature;BME280_humidity;BME280_pressure;Samples;Min_cycle;Max_cycle;Signal;HPM_P1;HPM_P2
2023/01/26 00:00:45;;;;;;;27.95;9.95;;;;;;;;;;5042497;28;20045;-66
2023/01/26 00:03:11;;;;;;;20.55;9.10;;;;;;;;;;5042711;28;20398;-66
2023/01/26 00:05:37;;;;;;;21.67;8.35;;;;;;;;;;5042726;28;20925;-66
2023/01/26 00:08:02;;;;;;;28.15;10.20;;;;;;;;;;5041759;28;20060;-64
2023/01/26 00:10:28;;;;;;;23.48;9.52;;;;;;;;;;5041089;28;20048;-65
2023/01/26 00:12:53;;;;;;;22.90;10.13;;;;;;;;;;5040911;28;20102;-66
2023/01/26 00:15:19;;;;;;;22.30;9.10;;;;;;;;;;5042369;28;20557;-66
2023/01/26 00:17:44;;;;;;;20.77;8.68;;;;;;;;;;5041779;28;20041;-66
2023/01/26 00:20:10;;;;;;;18.88;7.93;;;;;;;;;;5041310;28;20516;-67
2023/01/26 00:22:35;;;;;;;22.55;9.20;;;;;;;;;;5041821;28;20106;-67
2023/01/26 00:25:00;;;;;;;24.77;9.23;;;;;;;;;;5041369;28;20134;-67
2023/01/26 00:27:26;;;;;;;24.95;10.07;;;;;;;;;;5041395;28;20052;-67
2023/01/26 00:29:51;;;;;;;22.80;9.32;;;;;;;;;;5040585;28;20049;-68
2023/01/26 00:32:17;;;;;;;18.92;9.15;;;;;;;;;;5038867;28;20040;-64
2023/01/26 00:34:42;;;;;;;25.85;10.23;;;;;;;;;;5040476;28;20048;-67
2023/01/26 00:37:10;;;;;;;23.88;9.98;;;;;;;;;;5041766;28;20163;-67
2023/01/26 00:39:35;;;;;;;25.65;9.02;;;;;;;;;;5040496;28;20125;-67
2023/01/26 00:42:08;;;;;;;22.17;9.75;;;;;;;;;;5041019;28;20094;-66
2023/01/26 00:44:36;;;;;;;20.40;7.63;;;;;;;;;;5039469;28;20064;-64
2023/01/26 00:47:01;;;;;;;17.65;7.03;;;;;;;;;;5039786;28;20114;-65
2023/01/26 00:49:26;;;;;;;19.40;8.50;;;;;;;;;;5040021;28;20456;-66
2023/01/26 00:51:52;;;;;;;18.77;8.65;;;;;;;;;;5041779;28;20448;-67
2023/01/26 00:54:17;;;;;;;23.77;9.20;;;;;;;;;;5039169;28;20040;-66
2023/01/26 00:56:45;;;;;;;21.30;8.75;;;;;;;;;;5040038;28;20056;-68
2023/01/26 00:59:12;;;;;;;21.42;8.32;;;;;;;;;;5041108;28;20044;-66
2023/01/26 01:01:38;;;;;;;23.23;9.52;;;;;;;;;;5056694;28;20036;-67
2023/01/26 01:04:05;;;;;;;21.60;8.63;;;;;;;;;;5040400;28;20074;-68
2023/01/26 01:06:31;;;;;;;19.10;7.95;;;;;;;;;;5056229;28;20079;-66
2023/01/26 01:08:57;;;;;;;18.30;8.00;;;;;;;;;;5038885;28;20147;-65
2023/01/26 01:11:22;;;;;;;21.58;8.27;;;;;;;;;;5039845;28;20064;-64
2023/01/26 01:13:49;;;;;;;22.02;8.75;;;;;;;;;;5023237;28;20045;-65
2023/01/26 01:16:15;;;;;;;23.80;9.32;;;;;;;;;;5039523;28;20335;-67
2023/01/26 01:18:41;;;;;;;27.58;10.00;;;;;;;;;;5039084;28;20166;-65
2023/01/26 01:21:09;;;;;;;19.80;9.15;;;;;;;;;;5038881;28;20058;-65
2023/01/26 01:23:35;;;;;;;22.25;9.32;;;;;;;;;;5041139;28;20067;-65
2023/01/26 01:26:01;;;;;;;22.75;9.23;;;;;;;;;;5040106;28;20049;-65
2023/01/26 01:28:27;;;;;;;22.63;9.98;;;;;;;;;;5036946;28;20130;-64
2023/01/26 01:30:52;;;;;;;20.13;8.40;;;;;;;;;;5037798;28;20493;-66
2023/01/26 01:33:18;;;;;;;24.05;9.63;;;;;;;;;;5038138;28;20037;-65
2023/01/26 01:35:43;;;;;;;20.77;8.60;;;;;;;;;;5039057;28;20678;-64
2023/01/26 01:38:09;;;;;;;23.52;9.95;;;;;;;;;;5036993;28;20037;-66
2023/01/26 01:40:34;;;;;;;24.58;10.05;;;;;;;;;;5039083;28;20493;-64
2023/01/26 01:43:00;;;;;;;22.40;9.55;;;;;;;;;;5040792;28;20471;-64
2023/01/26 01:45:25;;;;;;;22.35;9.23;;;;;;;;;;5040685;28;20041;-63
2023/01/26 01:47:56;;;;;;;21.65;9.55;;;;;;;;;;5039903;28;20049;-64
2023/01/26 01:50:22;;;;;;;30.02;10.55;;;;;;;;;;5037822;28;20690;-66
2023/01/26 01:52:48;;;;;;;26.35;8.73;;;;;;;;;;5040709;28;20102;-65
2023/01/26 01:55:15;;;;;;;20.83;9.15;;;;;;;;;;5040628;28;20041;-65
2023/01/26 01:57:52;;;;;;;24.30;8.60;;;;;;;;;;5038300;28;20033;-67
2023/01/26 02:00:21;;;;;;;21.83;8.82;;;;;;;;;;5037526;28;20124;-65
2023/01/26 02:03:13;;;;;;;27.08;8.80;;;;;;;;;;5039027;28;20113;-64
2023/01/26 02:05:54;;;;;;;24.92;9.55;;;;;;;;;;5040492;28;20036;-68
2023/01/26 02:08:24;;;;;;;26.65;10.05;;;;;;;;;;5039085;28;20072;-63
2023/01/26 02:10:52;;;;;;;26.42;10.05;;;;;;;;;;5039210;28;20052;-63
2023/01/26 02:13:19;;;;;;;24.55;10.13;;;;;;;;;;5039137;28;20052;-64
2023/01/26 02:15:45;;;;;;;24.02;9.75;;;;;;;;;;5039042;28;20055;-63
2023/01/26 02:18:11;;;;;;;25.67;9.77;;;;;;;;;;5039594;28;20132;-63
2023/01/26 02:20:56;;;;;;;29.17;9.57;;;;;;;;;;5055013;28;20040;-65
2023/01/26 02:23:38;;;;;;;21.58;8.93;;;;;;;;;;5039066;28;20059;-65
2023/01/26 02:26:06;;;;;;;19.25;7.93;;;;;;;;;;5033280;28;20371;-68
2023/01/26 02:28:32;;;;;;;21.02;7.65;;;;;;;;;;5037581;28;20041;-64
2023/01/26 02:30:58;;;;;;;21.10;8.48;;;;;;;;;;5039454;28;20091;-64
2023/01/26 02:33:27;;;;;;;21.00;8.60;;;;;;;;;;5037941;28;20106;-67
2023/01/26 02:35:56;;;;;;;17.65;8.40;;;;;;;;;;5038763;28;20045;-66
2023/01/26 02:38:25;;;;;;;20.73;8.77;;;;;;;;;;5037246;28;20068;-64
2023/01/26 02:40:58;;;;;;;19.48;8.52;;;;;;;;;;5038410;28;20052;-66
2023/01/26 02:43:26;;;;;;;19.17;7.70;;;;;;;;;;5037948;28;20041;-63
2023/01/26 02:45:51;;;;;;;15.48;7.45;;;;;;;;;;5038402;28;20052;-64
2023/01/26 02:51:03;;;;;;;13.13;6.85;;;;;;;;;;5042619;28;20079;-64
2023/01/26 02:53:28;;;;;;;18.50;6.97;;;;;;;;;;5042724;28;20041;-64
2023/01/26 02:55:54;;;;;;;20.38;7.95;;;;;;;;;;5041620;28;20103;-64
2023/01/26 02:58:20;;;;;;;13.93;6.47;;;;;;;;;;5042450;28;20456;-63
2023/01/26 03:00:45;;;;;;;11.18;6.18;;;;;;;;;;5042275;28;21160;-64
2023/01/26 03:03:22;;;;;;;18.77;6.95;;;;;;;;;;5042254;28;20445;-64
2023/01/26 03:05:49;;;;;;;14.90;6.68;;;;;;;;;;5041404;28;20049;-64
2023/01/26 03:08:15;;;;;;;18.77;7.85;;;;;;;;;;5040939;28;20036;-66
2023/01/26 03:10:40;;;;;;;16.58;6.93;;;;;;;;;;5042067;28;20041;-64
2023/01/26 03:13:06;;;;;;;14.23;6.63;;;;;;;;;;5042128;28;20059;-64
2023/01/26 03:15:51;;;;;;;16.85;7.57;;;;;;;;;;5043386;28;20190;-64
2023/01/26 03:29:29;;;;;;;16.63;5.85;;;;;;;;;;5056056;28;20107;-64
2023/01/26 03:31:58;;;;;;;17.48;6.78;;;;;;;;;;5041784;28;20079;-64
2023/01/26 03:34:24;;;;;;;15.27;7.25;;;;;;;;;;5041086;28;20071;-67
2023/01/26 03:36:50;;;;;;;13.23;6.05;;;;;;;;;;5041727;28;20045;-64
2023/01/26 03:58:29;;;;;;;14.07;6.22;;;;;;;;;;5039842;28;20383;-64
2023/01/26 04:00:58;;;;;;;11.27;6.45;;;;;;;;;;5039143;28;20077;-66
2023/01/26 04:08:52;;;;;;;15.30;7.07;;;;;;;;;;5039241;28;20053;-66
2023/01/26 04:11:18;;;;;;;13.30;6.05;;;;;;;;;;5041906;28;20497;-63
2023/01/26 04:22:00;;;;;;;15.32;5.95;;;;;;;;;;5041040;28;20097;-64
2023/01/26 04:24:26;;;;;;;12.10;5.38;;;;;;;;;;5039419;28;20449;-63
2023/01/26 04:26:54;;;;;;;12.27;5.88;;;;;;;;;;5038147;28;20102;-63
2023/01/26 04:29:24;;;;;;;12.32;6.47;;;;;;;;;;5039496;28;20187;-67
2023/01/26 04:31:50;;;;;;;13.55;6.57;;;;;;;;;;5040757;28;20585;-64
2023/01/26 04:34:18;;;;;;;14.35;6.10;;;;;;;;;;5039329;28;20040;-63
2023/01/26 04:36:44;;;;;;;12.25;6.25;;;;;;;;;;5040262;28;20209;-67
2023/01/26 04:39:09;;;;;;;15.93;7.30;;;;;;;;;;5039980;28;20130;-64
2023/01/26 04:41:37;;;;;;;14.68;7.32;;;;;;;;;;5039374;28;20037;-66
2023/01/26 04:44:07;;;;;;;13.73;6.50;;;;;;;;;;5039870;28;20051;-65
2023/01/26 04:46:33;;;;;;;14.77;6.95;;;;;;;;;;5049660;28;20927;-66
2023/01/26 04:48:59;;;;;;;11.30;5.85;;;;;;;;;;5039741;28;20528;-64
2023/01/26 04:51:25;;;;;;;14.50;6.45;;;;;;;;;;5040295;28;20041;-65
2023/01/26 04:53:50;;;;;;;15.70;7.00;;;;;;;;;;5040193;28;20053;-65
2023/01/26 04:56:26;;;;;;;16.55;6.63;;;;;;;;;;5038526;28;20055;-67
2023/01/26 04:58:53;;;;;;;16.00;7.00;;;;;;;;;;5039617;28;20049;-64
2023/01/26 05:01:20;;;;;;;15.98;6.72;;;;;;;;;;5040088;28;20041;-67
2023/01/26 05:03:46;;;;;;;17.27;7.65;;;;;;;;;;5040066;28;20084;-66
2023/01/26 05:06:11;;;;;;;12.68;6.20;;;;;;;;;;5039509;28;20398;-67
2023/01/26 05:08:38;;;;;;;14.88;6.75;;;;;;;;;;5054961;28;20537;-65
2023/01/26 05:11:04;;;;;;;16.27;6.65;;;;;;;;;;5039616;28;20056;-66
2023/01/26 05:13:52;;;;;;;22.52;8.07;;;;;;;;;;5041239;28;20136;-66
2023/01/26 05:16:33;;;;;;;36.03;12.55;;;;;;;;;;5039996;28;20071;-67
2023/01/26 05:19:05;;;;;;;29.27;10.93;;;;;;;;;;5037955;28;20083;-68
2023/01/26 05:21:41;;;;;;;19.05;8.77;;;;;;;;;;5039790;28;20147;-66
2023/01/26 05:24:07;;;;;;;15.15;7.25;;;;;;;;;;5056359;28;20120;-67
2023/01/26 05:27:19;;;;;;;18.48;6.90;;;;;;;;;;5038976;28;20037;-66
2023/01/26 05:29:33;;;;;;;12.23;6.40;;;;;;;;;;5037532;28;20437;-66
2023/01/26 05:31:59;;;;;;;12.93;6.53;;;;;;;;;;5022732;28;20722;-67
2023/01/26 05:34:25;;;;;;;11.63;6.28;;;;;;;;;;5038861;28;20507;-66
2023/01/26 05:36:51;;;;;;;16.92;6.20;;;;;;;;;;5056385;28;20049;-67
2023/01/26 05:39:16;;;;;;;13.35;6.15;;;;;;;;;;5037767;28;20045;-68
2023/01/26 05:41:42;;;;;;;13.20;6.07;;;;;;;;;;5039203;28;20644;-67
2023/01/26 05:44:28;;;;;;;12.13;6.38;;;;;;;;;;5039462;28;20040;-68
2023/01/26 05:47:08;;;;;;;14.15;6.65;;;;;;;;;;5039416;28;20947;-68
2023/01/26 05:49:34;;;;;;;10.15;5.20;;;;;;;;;;5038674;28;20494;-67
2023/01/26 05:52:00;;;;;;;12.57;6.10;;;;;;;;;;5038338;28;20127;-68
2023/01/26 05:54:27;;;;;;;13.07;6.28;;;;;;;;;;5038121;28;20041;-68
2023/01/26 05:56:53;;;;;;;9.60;5.93;;;;;;;;;;5046336;28;20045;-70
2023/01/26 05:59:20;;;;;;;12.35;6.68;;;;;;;;;;5038462;28;20573;-68
2023/01/26 06:01:45;;;;;;;12.77;6.35;;;;;;;;;;5037765;28;20057;-69
2023/01/26 06:04:11;;;;;;;9.18;5.18;;;;;;;;;;5024897;28;20060;-68
2023/01/26 06:06:43;;;;;;;;;;;;;;;;;;5039375;28;20068;-69
2023/01/26 06:09:29;;;;;;;14.95;5.82;;;;;;;;;;5037732;28;19931;-71
2023/01/26 06:12:19;;;;;;;12.13;6.63;;;;;;;;;;5026587;28;20047;-69
2023/01/26 06:14:54;;;;;;;12.80;6.88;;;;;;;;;;5018581;28;20067;-70
2023/01/26 06:17:20;;;;;;;13.80;7.35;;;;;;;;;;5033917;28;20045;-67
2023/01/26 06:19:49;;;;;;;14.68;6.95;;;;;;;;;;5036395;28;20045;-67
2023/01/26 06:22:15;;;;;;;17.88;7.03;;;;;;;;;;5052149;28;20056;-69
2023/01/26 06:24:45;;;;;;;14.38;6.97;;;;;;;;;;5052144;28;20087;-71
2023/01/26 06:27:13;;;;;;;16.52;7.28;;;;;;;;;;5036933;28;20048;-67
2023/01/26 06:29:40;;;;;;;16.10;7.47;;;;;;;;;;5034442;28;20045;-68
2023/01/26 06:32:06;;;;;;;13.98;7.20;;;;;;;;;;5038636;28;20073;-69
2023/01/26 06:34:32;;;;;;;17.00;7.53;;;;;;;;;;5038490;28;20087;-70
2023/01/26 06:36:58;;;;;;;13.07;7.20;;;;;;;;;;5038070;28;20048;-68
2023/01/26 06:39:28;;;;;;;12.43;6.15;;;;;;;;;;5054582;28;20052;-70
2023/01/26 06:41:53;;;;;;;13.52;6.55;;;;;;;;;;5038477;28;20497;-68
2023/01/26 06:44:19;;;;;;;14.13;6.93;;;;;;;;;;5037797;28;20175;-69
2023/01/26 06:46:46;;;;;;;14.43;6.90;;;;;;;;;;5037437;28;20049;-70
2023/01/26 06:49:12;;;;;;;13.23;6.75;;;;;;;;;;5037156;28;20452;-67
2023/01/26 06:51:55;;;;;;;14.90;6.90;;;;;;;;;;5038283;28;20551;-69
2023/01/26 06:54:26;;;;;;;11.02;5.72;;;;;;;;;;5037625;28;20041;-70
2023/01/26 06:57:17;;;;;;;11.18;5.90;;;;;;;;;;5038978;28;20048;-68
2023/01/26 06:59:57;;;;;;;12.63;5.57;;;;;;;;;;5037768;28;20396;-67
2023/01/26 07:02:37;;;;;;;11.10;5.55;;;;;;;;;;5039286;28;20144;-70
2023/01/26 07:05:02;;;;;;;10.68;5.40;;;;;;;;;;5039664;28;20132;-70
2023/01/26 07:07:28;;;;;;;15.43;5.88;;;;;;;;;;5037867;28;20083;-69
2023/01/26 07:09:53;;;;;;;11.00;5.82;;;;;;;;;;5035916;28;20068;-71
2023/01/26 07:12:19;;;;;;;11.43;5.85;;;;;;;;;;5037722;28;20144;-68
2023/01/26 07:14:44;;;;;;;10.07;5.68;;;;;;;;;;5038434;28;20114;-69
2023/01/26 07:17:10;;;;;;;8.82;5.13;;;;;;;;;;5038159;28;20130;-70
2023/01/26 07:19:36;;;;;;;11.90;5.60;;;;;;;;;;5036589;28;20044;-68
2023/01/26 07:22:01;;;;;;;10.00;5.30;;;;;;;;;;5038799;28;20183;-68
2023/01/26 07:24:27;;;;;;;9.05;5.00;;;;;;;;;;5039091;28;20041;-68
2023/01/26 07:26:54;;;;;;;11.77;5.15;;;;;;;;;;5039761;28;20486;-69
2023/01/26 07:29:19;;;;;;;7.50;4.45;;;;;;;;;;5037946;28;20167;-68
2023/01/26 07:31:44;;;;;;;11.38;4.60;;;;;;;;;;5039493;28;20143;-70
2023/01/26 07:34:10;;;;;;;6.28;4.00;;;;;;;;;;5039417;28;20087;-67
2023/01/26 07:36:36;;;;;;;4.47;3.60;;;;;;;;;;5042750;28;20064;-67
2023/01/26 07:39:01;;;;;;;7.90;4.57;;;;;;;;;;5041876;28;20098;-70
2023/01/26 07:41:27;;;;;;;8.95;4.32;;;;;;;;;;5042324;28;20060;-67
2023/01/26 07:43:52;;;;;;;7.45;4.55;;;;;;;;;;5042747;28;20678;-70
2023/01/26 07:46:18;;;;;;;13.40;5.50;;;;;;;;;;5040877;28;20607;-70
2023/01/26 07:48:43;;;;;;;9.77;5.30;;;;;;;;;;5042093;28;20049;-68
2023/01/26 07:51:09;;;;;;;8.95;5.00;;;;;;;;;;5042246;28;20977;-68
2023/01/26 07:53:41;;;;;;;7.50;4.97;;;;;;;;;;5033794;28;20064;-67
2023/01/26 07:56:19;;;;;;;8.67;4.60;;;;;;;;;;5054852;28;20067;-69
2023/01/26 07:58:51;;;;;;;6.43;3.47;;;;;;;;;;5041901;28;20045;-68
2023/01/26 08:01:16;;;;;;;7.10;3.55;;;;;;;;;;5041199;28;20177;-70
2023/01/26 08:03:44;;;;;;;5.60;3.35;;;;;;;;;;5041392;28;20490;-68
2023/01/26 08:06:10;;;;;;;5.35;3.30;;;;;;;;;;5042596;28;20106;-71
2023/01/26 08:08:36;;;;;;;5.88;3.35;;;;;;;;;;5041537;28;20525;-69
2023/01/26 08:11:02;;;;;;;5.93;3.47;;;;;;;;;;5042544;28;20053;-68
2023/01/26 08:13:29;;;;;;;5.78;3.53;;;;;;;;;;5041741;28;20051;-68
2023/01/26 08:15:59;;;;;;;5.32;3.60;;;;;;;;;;5042047;28;20421;-69
2023/01/26 08:18:25;;;;;;;5.72;4.00;;;;;;;;;;5041229;28;20056;-70
2023/01/26 08:20:52;;;;;;;7.78;4.50;;;;;;;;;;5042408;28;20053;-69
2023/01/26 08:23:18;;;;;;;6.25;4.03;;;;;;;;;;5042387;28;20056;-70
2023/01/26 08:25:44;;;;;;;6.47;3.72;;;;;;;;;;5041683;28;20053;-68
2023/01/26 08:28:09;;;;;;;5.32;3.90;;;;;;;;;;5041607;28;20061;-69
2023/01/26 08:30:35;;;;;;;6.65;4.00;;;;;;;;;;5041358;28;20098;-70
2023/01/26 08:33:02;;;;;;;6.05;3.50;;;;;;;;;;5041604;28;20094;-71
2023/01/26 08:35:27;;;;;;;3.33;2.22;;;;;;;;;;5041313;28;20045;-71
2023/01/26 08:37:53;;;;;;;4.28;2.80;;;;;;;;;;5041087;28;20060;-70
2023/01/26 08:40:18;;;;;;;3.85;2.65;;;;;;;;;;5041619;28;20155;-68
2023/01/26 08:42:44;;;;;;;4.07;2.80;;;;;;;;;;5040847;28;20208;-69
2023/01/26 08:45:09;;;;;;;4.43;3.22;;;;;;;;;;5041231;28;20095;-69
2023/01/26 08:47:35;;;;;;;6.80;3.72;;;;;;;;;;5040745;28;20149;-68
2023/01/26 08:50:00;;;;;;;6.95;3.60;;;;;;;;;;5041017;28;20586;-70
2023/01/26 08:52:26;;;;;;;4.88;2.78;;;;;;;;;;5039201;28;20037;-69
2023/01/26 08:54:52;;;;;;;2.42;2.13;;;;;;;;;;5041914;28;20049;-67
2023/01/26 08:57:17;;;;;;;5.05;2.83;;;;;;;;;;5040646;28;20047;-70
2023/01/26 08:59:43;;;;;;;7.38;3.80;;;;;;;;;;5041053;28;20409;-71
2023/01/26 09:02:09;;;;;;;5.85;3.17;;;;;;;;;;5038973;28;20051;-68
2023/01/26 09:04:34;;;;;;;4.53;3.15;;;;;;;;;;5040569;28;20623;-70
2023/01/26 09:07:00;;;;;;;5.25;3.55;;;;;;;;;;5041466;28;20056;-67
2023/01/26 09:09:25;;;;;;;2.17;1.58;;;;;;;;;;5039688;28;20132;-67
2023/01/26 09:11:54;;;;;;;3.20;2.53;;;;;;;;;;5056415;28;20072;-67
2023/01/26 09:14:20;;;;;;;4.30;3.05;;;;;;;;;;5040006;28;20516;-68
2023/01/26 09:16:45;;;;;;;5.53;3.30;;;;;;;;;;5041593;28;20045;-68
2023/01/26 09:19:10;;;;;;;7.15;3.90;;;;;;;;;;5039473;28;20057;-70
2023/01/26 09:21:36;;;;;;;6.20;3.08;;;;;;;;;;5040949;28;20045;-67
2023/01/26 09:24:01;;;;;;;4.45;3.20;;;;;;;;;;5041154;28;20063;-69
2023/01/26 09:26:28;;;;;;;5.25;3.63;;;;;;;;;;5040582;28;20060;-68
2023/01/26 09:28:53;;;;;;;4.13;2.58;;;;;;;;;;5040250;28;20088;-68
2023/01/26 09:31:19;;;;;;;5.60;3.40;;;;;;;;;;5039986;28;20083;-71
2023/01/26 09:33:45;;;;;;;4.47;2.97;;;;;;;;;;5040464;28;20098;-68
2023/01/26 09:36:11;;;;;;;3.70;2.83;;;;;;;;;;5040827;28;20971;-68
2023/01/26 09:38:37;;;;;;;6.03;3.83;;;;;;;;;;5039726;28;20202;-71
2023/01/26 09:41:09;;;;;;;6.78;4.10;;;;;;;;;;5040812;28;20045;-70
2023/01/26 09:43:49;;;;;;;6.30;3.78;;;;;;;;;;5039367;28;20064;-68
2023/01/26 09:46:39;;;;;;;5.50;2.78;;;;;;;;;;5040911;28;20044;-68
2023/01/26 09:49:11;;;;;;;6.00;3.10;;;;;;;;;;5009027;28;20059;-68
2023/01/26 09:51:41;;;;;;;5.95;3.67;;;;;;;;;;5040614;28;20435;-71
2023/01/26 09:54:32;;;;;;;3.70;2.88;;;;;;;;;;5039046;28;20055;-68
2023/01/26 09:57:17;;;;;;;5.47;3.08;;;;;;;;;;5037986;28;20049;-68
2023/01/26 10:00:04;;;;;;;4.07;2.70;;;;;;;;;;5039601;28;20626;-69
2023/01/26 10:02:48;;;;;;;5.13;3.20;;;;;;;;;;5039704;28;20258;-68
2023/01/26 10:05:31;;;;;;;4.35;3.20;;;;;;;;;;5039193;28;20053;-70
2023/01/26 10:08:13;;;;;;;8.95;3.65;;;;;;;;;;5039362;28;20044;-67
2023/01/26 10:11:16;;;;;;;5.47;2.72;;;;;;;;;;5039784;28;20532;-68
2023/01/26 10:13:49;;;;;;;4.60;2.88;;;;;;;;;;4988714;28;20079;-67
2023/01/26 10:16:15;;;;;;;6.15;3.58;;;;;;;;;;5039193;28;20044;-69
2023/01/26 10:19:01;;;;;;;5.55;2.88;;;;;;;;;;5038701;28;20041;-70
2023/01/26 10:21:34;;;;;;;3.50;2.63;;;;;;;;;;5040241;28;20044;-67
2023/01/26 10:24:01;;;;;;;5.18;2.75;;;;;;;;;;5039785;28;20056;-68
2023/01/26 10:26:30;;;;;;;5.03;3.22;;;;;;;;;;5038916;28;20041;-68
2023/01/26 10:28:56;;;;;;;5.57;2.97;;;;;;;;;;5038076;28;20128;-68
2023/01/26 10:31:25;;;;;;;6.25;3.50;;;;;;;;;;5040036;28;20124;-67
2023/01/26 10:34:07;;;;;;;8.43;4.43;;;;;;;;;;5039607;28;20045;-66
2023/01/26 10:36:33;;;;;;;8.23;4.35;;;;;;;;;;5038730;28;20053;-68
2023/01/26 10:39:10;;;;;;;7.10;3.80;;;;;;;;;;5054608;28;20142;-70
2023/01/26 10:41:36;;;;;;;10.02;4.97;;;;;;;;;;5040298;28;20552;-66
2023/01/26 10:44:08;;;;;;;9.40;3.67;;;;;;;;;;5038934;28;20044;-69
2023/01/26 10:46:39;;;;;;;5.68;3.50;;;;;;;;;;5039380;28;20044;-68
2023/01/26 10:49:08;;;;;;;4.77;3.67;;;;;;;;;;5037953;28;20052;-67
2023/01/26 10:51:38;;;;;;;5.07;3.25;;;;;;;;;;5039914;28;20291;-68
2023/01/26 10:54:25;;;;;;;6.53;3.50;;;;;;;;;;5039473;28;20049;-68
2023/01/26 10:56:54;;;;;;;7.38;4.10;;;;;;;;;;5037276;28;20064;-68
2023/01/26 10:59:37;;;;;;;5.43;3.35;;;;;;;;;;5036827;28;20398;-69
2023/01/26 11:02:18;;;;;;;5.15;3.50;;;;;;;;;;5038745;28;20080;-70
2023/01/26 11:05:01;;;;;;;4.78;3.00;;;;;;;;;;5039584;28;20053;-69
2023/01/26 11:07:32;;;;;;;4.55;3.08;;;;;;;;;;5039642;28;20478;-67
2023/01/26 11:10:14;;;;;;;4.85;2.88;;;;;;;;;;5039516;28;20805;-68
2023/01/26 11:12:40;;;;;;;5.22;2.67;;;;;;;;;;5042416;28;20063;-68
2023/01/26 11:15:15;;;;;;;3.63;2.22;;;;;;;;;;5043390;28;20044;-68
2023/01/26 11:17:48;;;;;;;1.35;1.25;;;;;;;;;;5043692;28;20191;-68
2023/01/26 11:20:31;;;;;;;4.22;3.25;;;;;;;;;;5041412;28;20045;-68
2023/01/26 11:23:07;;;;;;;4.40;3.38;;;;;;;;;;5035147;28;20045;-69
2023/01/26 11:26:00;;;;;;;5.40;3.83;;;;;;;;;;5043188;28;20102;-68
2023/01/26 11:28:43;;;;;;;4.15;3.03;;;;;;;;;;5041861;28;20045;-67
2023/01/26 11:31:30;;;;;;;4.55;3.40;;;;;;;;;;5042147;28;20498;-69
2023/01/26 11:34:17;;;;;;;4.32;3.08;;;;;;;;;;5042542;28;20083;-69
2023/01/26 11:36:57;;;;;;;4.97;2.90;;;;;;;;;;5042599;28;20049;-68
2023/01/26 11:39:29;;;;;;;5.43;3.55;;;;;;;;;;5042094;28;20047;-67
2023/01/26 11:42:00;;;;;;;4.88;3.28;;;;;;;;;;5042877;28;20127;-67
2023/01/26 11:44:53;;;;;;;9.30;3.72;;;;;;;;;;5041225;28;20060;-68
2023/01/26 11:47:42;;;;;;;4.38;3.63;;;;;;;;;;5042902;28;20029;-67
2023/01/26 11:50:22;;;;;;;5.28;4.03;;;;;;;;;;5040658;28;20061;-66
2023/01/26 11:53:14;;;;;;;6.07;3.70;;;;;;;;;;5042044;28;20053;-68
2023/01/26 11:56:12;;;;;;;5.43;3.53;;;;;;;;;;5042583;28;20048;-68
2023/01/26 11:59:03;;;;;;;6.05;4.00;;;;;;;;;;5041525;28;20040;-67
2023/01/26 12:01:58;;;;;;;9.50;4.05;;;;;;;;;;5033829;28;20053;-68
2023/01/26 12:04:24;;;;;;;7.85;4.35;;;;;;;;;;5041056;28;20043;-69
2023/01/26 12:06:57;;;;;;;9.07;5.55;;;;;;;;;;5042103;28;20056;-68
2023/01/26 12:09:41;;;;;;;6.47;4.10;;;;;;;;;;5041895;28;20051;-68
2023/01/26 12:12:28;;;;;;;11.35;5.43;;;;;;;;;;5041488;28;20099;-67
2023/01/26 12:15:01;;;;;;;13.75;7.25;;;;;;;;;;5039875;28;20055;-67
2023/01/26 12:17:39;;;;;;;14.75;7.15;;;;;;;;;;5041044;28;20045;-67
2023/01/26 12:20:25;;;;;;;14.00;5.47;;;;;;;;;;5040499;28;21085;-68
2023/01/26 12:23:04;;;;;;;15.57;7.15;;;;;;;;;;5039460;28;20461;-69
2023/01/26 12:25:35;;;;;;;10.35;5.93;;;;;;;;;;5042057;28;20069;-68
2023/01/26 12:28:16;;;;;;;16.67;7.85;;;;;;;;;;5038729;28;20063;-71
2023/01/26 12:31:06;;;;;;;15.25;8.02;;;;;;;;;;5041123;28;20129;-68
2023/01/26 12:33:33;;;;;;;14.20;6.80;;;;;;;;;;5040774;28;20102;-68
2023/01/26 12:36:04;;;;;;;18.23;9.68;;;;;;;;;;5039867;28;20266;-70
2023/01/26 12:38:53;;;;;;;17.33;8.15;;;;;;;;;;5037076;28;20048;-68
2023/01/26 12:41:37;;;;;;;15.82;7.75;;;;;;;;;;5040609;28;20044;-73
2023/01/26 12:44:23;;;;;;;21.08;8.75;;;;;;;;;;5039612;28;20095;-70
2023/01/26 12:47:22;;;;;;;16.38;7.40;;;;;;;;;;5038665;28;20048;-67
2023/01/26 12:49:51;;;;;;;13.82;6.80;;;;;;;;;;5027043;28;20104;-69
2023/01/26 12:52:37;;;;;;;14.48;6.53;;;;;;;;;;5037662;28;20045;-70
2023/01/26 12:55:09;;;;;;;15.52;7.57;;;;;;;;;;5039531;28;20124;-68
2023/01/26 12:57:41;;;;;;;18.55;8.13;;;;;;;;;;5039086;28;20045;-68
2023/01/26 13:00:17;;;;;;;19.63;9.00;;;;;;;;;;5038922;28;20053;-70
2023/01/26 13:02:46;;;;;;;16.60;7.13;;;;;;;;;;5038665;28;20135;-67
2023/01/26 13:05:33;;;;;;;18.08;8.00;;;;;;;;;;5038686;28;20056;-69
2023/01/26 13:08:30;;;;;;;18.40;7.85;;;;;;;;;;5039958;28;20045;-71
2023/01/26 13:11:03;;;;;;;16.70;7.35;;;;;;;;;;5012812;28;20057;-69
2023/01/26 13:13:36;;;;;;;20.52;7.97;;;;;;;;;;5039422;28;20045;-69
2023/01/26 13:16:14;;;;;;;20.75;8.85;;;;;;;;;;5039427;28;20048;-68
2023/01/26 13:18:49;;;;;;;24.75;8.55;;;;;;;;;;5038739;28;20052;-73
2023/01/26 13:21:37;;;;;;;24.90;8.30;;;;;;;;;;5039307;28;20053;-70
2023/01/26 13:24:25;;;;;;;17.15;7.35;;;;;;;;;;5033939;28;20076;-68
2023/01/26 13:26:58;;;;;;;16.85;7.82;;;;;;;;;;5021390;28;20557;-71
2023/01/26 13:29:23;;;;;;;15.93;7.60;;;;;;;;;;5040058;28;20056;-71
2023/01/26 13:31:48;;;;;;;16.65;7.50;;;;;;;;;;5040395;28;20044;-70
2023/01/26 13:34:18;;;;;;;20.50;8.90;;;;;;;;;;5038770;28;20539;-69
2023/01/26 13:36:46;;;;;;;17.75;7.80;;;;;;;;;;5039727;28;20057;-70
2023/01/26 13:39:29;;;;;;;19.75;7.60;;;;;;;;;;5039788;28;20159;-72
2023/01/26 13:41:55;;;;;;;20.75;9.50;;;;;;;;;;5041085;28;20045;-73
2023/01/26 13:44:30;;;;;;;24.95;9.35;;;;;;;;;;5038614;28;20072;-69
2023/01/26 13:47:04;;;;;;;20.20;9.48;;;;;;;;;;5037896;28;20094;-70
2023/01/26 13:49:40;;;;;;;22.08;8.38;;;;;;;;;;5038298;28;20155;-71
2023/01/26 13:52:25;;;;;;;17.05;7.60;;;;;;;;;;5039791;28;20136;-69
2023/01/26 13:54:52;;;;;;;22.38;8.00;;;;;;;;;;5038364;28;20040;-69
2023/01/26 13:57:28;;;;;;;17.00;7.45;;;;;;;;;;5038839;28;20132;-68
2023/01/26 13:59:58;;;;;;;16.05;7.53;;;;;;;;;;5034721;28;20131;-68
2023/01/26 14:02:34;;;;;;;18.60;8.25;;;;;;;;;;5037973;28;20045;-68
2023/01/26 14:05:02;;;;;;;18.42;7.47;;;;;;;;;;5038295;28;20053;-69
2023/01/26 14:07:31;;;;;;;18.27;7.35;;;;;;;;;;5038326;28;20190;-68
2023/01/26 14:09:59;;;;;;;17.65;7.97;;;;;;;;;;5036892;28;21146;-71
2023/01/26 14:12:34;;;;;;;14.95;6.93;;;;;;;;;;5037559;28;20045;-74
2023/01/26 14:15:03;;;;;;;16.70;7.10;;;;;;;;;;5038688;28;20439;-69
2023/01/26 14:17:37;;;;;;;19.13;8.15;;;;;;;;;;5028035;28;20158;-68
2023/01/26 14:20:23;;;;;;;17.02;7.97;;;;;;;;;;5038366;28;20058;-71
2023/01/26 14:23:14;;;;;;;17.65;7.30;;;;;;;;;;5037444;28;20049;-69
2023/01/26 14:25:54;;;;;;;16.27;7.10;;;;;;;;;;5034597;28;20045;-71
2023/01/26 14:28:21;;;;;;;14.85;7.05;;;;;;;;;;5052341;28;20052;-72
2023/01/26 14:31:00;;;;;;;17.92;8.05;;;;;;;;;;5039699;28;20053;-67
2023/01/26 14:33:26;;;;;;;19.05;7.88;;;;;;;;;;5039023;28;20041;-68
2023/01/26 14:35:58;;;;;;;16.27;7.35;;;;;;;;;;5039951;28;20048;-69
2023/01/26 14:38:26;;;;;;;18.40;8.05;;;;;;;;;;5037545;28;20044;-68
2023/01/26 14:40:56;;;;;;;14.40;7.25;;;;;;;;;;5038755;28;20052;-73
2023/01/26 14:43:22;;;;;;;16.42;6.75;;;;;;;;;;5039114;28;20090;-68
2023/01/26 14:46:04;;;;;;;13.57;7.18;;;;;;;;;;5044038;28;20502;-69
2023/01/26 14:48:56;;;;;;;19.00;8.38;;;;;;;;;;5042318;28;20051;-70
2023/01/26 14:51:24;;;;;;;17.70;7.35;;;;;;;;;;5057667;28;20048;-68
2023/01/26 14:54:03;;;;;;;18.00;7.45;;;;;;;;;;5043258;28;20397;-69
2023/01/26 14:56:38;;;;;;;18.98;8.45;;;;;;;;;;5033402;28;20437;-70
2023/01/26 14:59:05;;;;;;;15.95;7.63;;;;;;;;;;5037876;28;20041;-69
2023/01/26 15:01:31;;;;;;;17.70;8.90;;;;;;;;;;5038195;28;20152;-70
2023/01/26 15:04:14;;;;;;;9.20;5.38;;;;;;;;;;5040329;28;20127;-71
2023/01/26 15:06:39;;;;;;;15.48;7.32;;;;;;;;;;5039834;28;20041;-70
2023/01/26 15:09:26;;;;;;;13.35;6.53;;;;;;;;;;5039123;28;20045;-71
2023/01/26 15:14:48;;;;;;;16.55;7.30;;;;;;;;;;5040793;28;20501;-70
2023/01/26 15:17:32;;;;;;;14.77;6.35;;;;;;;;;;5040434;28;20115;-71
2023/01/26 15:19:57;;;;;;;17.17;7.00;;;;;;;;;;5040408;28;20048;-70
2023/01/26 15:22:25;;;;;;;14.35;6.95;;;;;;;;;;5038933;28;20041;-70
2023/01/26 15:25:38;;;;;;;11.50;6.30;;;;;;;;;;5039945;28;20513;-70
2023/01/26 15:28:04;;;;;;;17.08;8.10;;;;;;;;;;5018794;28;20044;-71
2023/01/26 15:30:32;;;;;;;18.90;7.70;;;;;;;;;;5040198;28;20498;-70
2023/01/26 15:32:58;;;;;;;17.60;7.75;;;;;;;;;;5039939;28;20055;-71
2023/01/26 15:35:28;;;;;;;16.13;7.93;;;;;;;;;;5039596;28;20045;-72
2023/01/26 15:38:05;;;;;;;14.60;7.60;;;;;;;;;;5040477;28;20067;-70
2023/01/26 15:40:31;;;;;;;20.13;8.60;;;;;;;;;;5038374;28;20055;-69
2023/01/26 15:43:17;;;;;;;20.65;8.98;;;;;;;;;;5040048;28;20047;-72
2023/01/26 15:45:50;;;;;;;21.77;8.90;;;;;;;;;;5040389;28;20934;-74
2023/01/26 15:48:16;;;;;;;17.92;8.52;;;;;;;;;;5040136;28;20094;-70